Time;durP1;ratioP1;P1;durP2;ratioP2;P2;SDS_P1;SDS_P2;PMS_P1;PMS_P2;Temp;Humidity;BMP_temperature;BMP_pressure;BME280_temperature;BME280_humidity;BME280_pressure;Samples;Min_cycle;Max_cycle;Signal;HPM_P1;HPM_P2
2023/12/12 00:00:32;;;;;;;11.77;1.92;;;;;;;;;;5030902;28;20056;-63
2023/12/12 00:02:59;;;;;;;8.40;1.40;;;;;;;;;;5032239;28;20053;-63
2023/12/12 00:05:25;;;;;;;11.32;1.77;;;;;;;;;;5018003;28;20045;-63
2023/12/12 00:07:51;;;;;;;14.10;2.45;;;;;;;;;;5019001;28;20115;-63
2023/12/12 00:10:18;;;;;;;11.38;1.52;;;;;;;;;;5025904;28;20045;-63
2023/12/12 00:12:44;;;;;;;8.38;1.90;;;;;;;;;;5036363;28;20042;-63
2023/12/12 00:15:11;;;;;;;15.27;1.75;;;;;;;;;;5036799;28;20104;-63
2023/12/12 00:17:40;;;;;;;8.98;2.05;;;;;;;;;;5038121;28;20587;-63
2023/12/12 00:20:09;;;;;;;5.15;1.25;;;;;;;;;;5042116;28;20364;-63
2023/12/12 00:22:36;;;;;;;12.18;1.30;;;;;;;;;;5046060;28;20075;-63
2023/12/12 00:25:02;;;;;;;11.68;1.73;;;;;;;;;;5032273;28;20441;-63
2023/12/12 00:27:28;;;;;;;9.35;1.48;;;;;;;;;;5030510;28;20094;-63
2023/12/12 00:29:55;;;;;;;8.10;1.17;;;;;;;;;;5026027;28;20092;-63
2023/12/12 00:32:21;;;;;;;15.23;2.65;;;;;;;;;;5033154;28;20060;-63
2023/12/12 00:34:47;;;;;;;7.00;1.48;;;;;;;;;;5030624;28;20439;-63
2023/12/12 00:37:13;;;;;;;9.25;1.33;;;;;;;;;;5009210;28;20045;-63
2023/12/12 00:39:40;;;;;;;12.25;2.08;;;;;;;;;;5036768;28;20045;-63
2023/12/12 00:42:06;;;;;;;8.00;1.90;;;;;;;;;;5025101;28;20073;-63
2023/12/12 00:44:34;;;;;;;6.18;1.52;;;;;;;;;;5034558;28;20493;-63
2023/12/12 00:47:01;;;;;;;12.20;1.50;;;;;;;;;;5049147;28;20041;-63
2023/12/12 00:49:27;;;;;;;14.35;2.17;;;;;;;;;;5032024;28;20136;-63
2023/12/12 00:51:53;;;;;;;6.55;1.65;;;;;;;;;;5051056;28;20365;-63
2023/12/12 00:54:20;;;;;;;11.02;1.70;;;;;;;;;;5044318;28;20045;-63
2023/12/12 00:56:47;;;;;;;11.10;2.40;;;;;;;;;;5030933;28;20049;-63
2023/12/12 00:59:14;;;;;;;7.88;2.00;;;;;;;;;;5025999;28;20049;-63
2023/12/12 01:01:40;;;;;;;5.68;1.40;;;;;;;;;;5039567;28;20037;-63
2023/12/12 01:04:08;;;;;;;11.45;1.75;;;;;;;;;;5041963;28;20052;-63
2023/12/12 01:06:34;;;;;;;7.45;1.77;;;;;;;;;;5031799;28;20083;-63
2023/12/12 01:09:00;;;;;;;7.72;1.50;;;;;;;;;;5046796;28;20059;-63
2023/12/12 01:11:26;;;;;;;9.95;1.42;;;;;;;;;;5016888;28;20087;-63
2023/12/12 01:13:53;;;;;;;3.92;1.00;;;;;;;;;;5013248;28;20048;-63
2023/12/12 01:16:19;;;;;;;8.25;1.40;;;;;;;;;;5031444;28;20037;-63
2023/12/12 01:18:45;;;;;;;5.78;1.00;;;;;;;;;;5029760;28;20516;-63
2023/12/12 01:21:11;;;;;;;9.27;1.73;;;;;;;;;;5042028;28;20041;-63
2023/12/12 01:23:56;;;;;;;6.43;0.85;;;;;;;;;;5043054;28;20734;-63
2023/12/12 01:26:23;;;;;;;5.32;0.90;;;;;;;;;;5029688;28;20044;-63
2023/12/12 01:28:50;;;;;;;13.65;1.23;;;;;;;;;;5048525;28;20120;-63
2023/12/12 01:31:16;;;;;;;4.20;1.05;;;;;;;;;;5026900;28;20045;-63
2023/12/12 01:33:42;;;;;;;5.32;1.33;;;;;;;;;;5033623;28;20049;-63
2023/12/12 01:36:09;;;;;;;5.72;0.90;;;;;;;;;;5031384;28;20229;-63
2023/12/12 01:38:35;;;;;;;9.98;1.30;;;;;;;;;;5032961;28;20053;-63
2023/12/12 01:41:01;;;;;;;4.18;1.02;;;;;;;;;;5016934;28;20044;-63
2023/12/12 01:43:28;;;;;;;7.53;1.17;;;;;;;;;;5050073;28;20040;-63
2023/12/12 01:45:56;;;;;;;3.45;1.13;;;;;;;;;;5028551;28;20037;-63
2023/12/12 01:48:23;;;;;;;4.28;1.20;;;;;;;;;;5045823;28;20128;-63
2023/12/12 01:50:50;;;;;;;7.18;1.58;;;;;;;;;;5033278;28;20098;-63
2023/12/12 01:53:19;;;;;;;4.00;1.45;;;;;;;;;;5030084;28;20346;-63
2023/12/12 01:55:45;;;;;;;10.10;1.40;;;;;;;;;;5031935;28;20106;-63
2023/12/12 01:58:11;;;;;;;4.00;1.17;;;;;;;;;;5031630;28;20071;-63
2023/12/12 02:00:38;;;;;;;9.25;1.55;;;;;;;;;;5031290;28;20087;-63
2023/12/12 02:03:04;;;;;;;6.63;1.65;;;;;;;;;;5047357;28;20101;-66
2023/12/12 02:05:30;;;;;;;6.45;1.80;;;;;;;;;;5029256;28;20049;-62
2023/12/12 02:07:58;;;;;;;7.53;1.27;;;;;;;;;;5030988;28;20049;-63
2023/12/12 02:10:24;;;;;;;8.85;1.35;;;;;;;;;;5033320;28;20120;-63
2023/12/12 02:12:50;;;;;;;4.65;1.20;;;;;;;;;;5030231;28;20049;-63
2023/12/12 02:15:17;;;;;;;6.53;1.30;;;;;;;;;;5030993;28;20120;-63
2023/12/12 02:17:43;;;;;;;8.05;1.52;;;;;;;;;;5047218;28;20033;-63
2023/12/12 02:20:09;;;;;;;7.05;1.70;;;;;;;;;;5041751;28;20107;-63
2023/12/12 02:22:35;;;;;;;2.90;1.30;;;;;;;;;;5045612;28;20068;-63
2023/12/12 02:25:01;;;;;;;3.35;1.17;;;;;;;;;;5030235;28;20065;-63
2023/12/12 02:27:28;;;;;;;2.72;1.05;;;;;;;;;;5027435;28;20113;-63
2023/12/12 02:29:54;;;;;;;8.90;1.60;;;;;;;;;;5048346;28;20361;-63
2023/12/12 02:32:20;;;;;;;5.63;1.10;;;;;;;;;;5028094;28;20110;-63
2023/12/12 02:34:46;;;;;;;5.45;1.20;;;;;;;;;;5045870;28;20078;-63
2023/12/12 02:37:13;;;;;;;3.45;1.23;;;;;;;;;;5042870;28;20052;-63
2023/12/12 02:39:41;;;;;;;4.68;1.40;;;;;;;;;;5014018;28;20044;-63
2023/12/12 02:42:07;;;;;;;5.40;1.60;;;;;;;;;;5050112;28;20041;-63
2023/12/12 02:44:34;;;;;;;5.95;1.40;;;;;;;;;;5049324;28;20116;-63
2023/12/12 02:47:00;;;;;;;4.35;1.23;;;;;;;;;;5029761;28;20059;-63
2023/12/12 02:49:26;;;;;;;5.22;1.20;;;;;;;;;;5031132;28;20037;-63
2023/12/12 02:51:52;;;;;;;6.80;1.45;;;;;;;;;;5050056;28;20040;-63
2023/12/12 02:54:18;;;;;;;5.78;1.90;;;;;;;;;;5048147;28;20469;-63
2023/12/12 02:56:45;;;;;;;5.38;1.52;;;;;;;;;;5048987;28;20045;-63
2023/12/12 02:59:11;;;;;;;5.38;1.30;;;;;;;;;;5032399;28;20041;-63
2023/12/12 03:01:37;;;;;;;5.65;1.50;;;;;;;;;;5027147;28;20517;-63
2023/12/12 03:04:03;;;;;;;11.50;1.70;;;;;;;;;;5030152;28;20369;-63
2023/12/12 03:06:29;;;;;;;11.93;2.47;;;;;;;;;;5048121;28;20495;-63
2023/12/12 03:08:55;;;;;;;7.30;1.58;;;;;;;;;;5049036;28;20444;-63
2023/12/12 03:11:21;;;;;;;8.05;1.75;;;;;;;;;;5032046;28;20049;-63
2023/12/12 03:13:48;;;;;;;9.80;2.00;;;;;;;;;;5033963;28;20045;-63
2023/12/12 03:16:14;;;;;;;10.75;1.60;;;;;;;;;;5034086;28;20040;-63
2023/12/12 03:18:40;;;;;;;5.53;1.67;;;;;;;;;;5032707;28;20413;-63
2023/12/12 03:21:06;;;;;;;9.60;1.65;;;;;;;;;;5031205;28;20057;-63
2023/12/12 03:23:32;;;;;;;14.18;1.60;;;;;;;;;;5031907;28;20103;-63
2023/12/12 03:26:07;;;;;;;7.13;1.77;;;;;;;;;;5031398;28;20045;-63
2023/12/12 03:28:33;;;;;;;6.13;2.03;;;;;;;;;;5031276;28;20389;-63
2023/12/12 03:31:00;;;;;;;8.23;2.20;;;;;;;;;;5031794;28;20048;-63
2023/12/12 03:33:26;;;;;;;5.50;1.60;;;;;;;;;;5030926;28;20037;-63
2023/12/12 03:35:52;;;;;;;7.68;1.77;;;;;;;;;;5028178;28;20038;-63
2023/12/12 03:38:18;;;;;;;6.18;1.40;;;;;;;;;;5021154;28;20541;-63
2023/12/12 03:40:44;;;;;;;13.50;2.13;;;;;;;;;;5024664;28;20147;-63
2023/12/12 03:43:10;;;;;;;5.10;1.80;;;;;;;;;;5024457;28;20043;-63
2023/12/12 03:45:37;;;;;;;4.90;1.75;;;;;;;;;;5030131;28;20037;-63
2023/12/12 03:48:03;;;;;;;9.13;1.90;;;;;;;;;;5020592;28;20049;-63
2023/12/12 03:50:29;;;;;;;11.00;2.35;;;;;;;;;;5028065;28;20087;-63
2023/12/12 03:52:55;;;;;;;10.68;2.58;;;;;;;;;;5028824;28;20083;-63
2023/12/12 03:55:21;;;;;;;8.60;2.50;;;;;;;;;;5031967;28;20049;-63
2023/12/12 03:57:47;;;;;;;9.35;2.15;;;;;;;;;;5029938;28;20358;-63
2023/12/12 04:00:14;;;;;;;11.73;3.40;;;;;;;;;;5030658;28;20120;-63
2023/12/12 04:02:40;;;;;;;9.90;2.47;;;;;;;;;;5030175;28;20505;-63
2023/12/12 04:05:10;;;;;;;10.25;2.70;;;;;;;;;;5032620;28;20046;-63
2023/12/12 04:07:39;;;;;;;12.32;3.58;;;;;;;;;;5031245;28;20048;-63
2023/12/12 04:10:06;;;;;;;8.90;3.28;;;;;;;;;;5042904;28;20052;-63
2023/12/12 04:12:33;;;;;;;9.80;2.70;;;;;;;;;;5030600;28;20053;-63
2023/12/12 04:15:00;;;;;;;13.57;3.20;;;;;;;;;;5024461;28;20073;-63
2023/12/12 04:17:26;;;;;;;7.90;2.50;;;;;;;;;;5031362;28;20393;-63
2023/12/12 04:19:52;;;;;;;13.35;2.90;;;;;;;;;;5036282;28;20072;-63
2023/12/12 04:22:18;;;;;;;12.48;3.83;;;;;;;;;;5033622;28;20404;-63
2023/12/12 04:24:44;;;;;;;12.15;3.50;;;;;;;;;;5048618;28;20083;-63
2023/12/12 04:27:10;;;;;;;11.85;3.63;;;;;;;;;;5048929;28;20587;-63
2023/12/12 04:29:37;;;;;;;15.80;3.40;;;;;;;;;;5033416;28;20041;-63
2023/12/12 04:32:04;;;;;;;15.68;4.18;;;;;;;;;;5026776;28;20111;-63
2023/12/12 04:34:33;;;;;;;8.40;3.70;;;;;;;;;;5030732;28;20055;-63
2023/12/12 04:37:01;;;;;;;14.85;4.30;;;;;;;;;;5045070;28;20129;-63
2023/12/12 04:39:28;;;;;;;11.50;3.30;;;;;;;;;;5044798;28;20053;-63
2023/12/12 04:41:54;;;;;;;12.07;3.75;;;;;;;;;;5045545;28;20033;-63
2023/12/12 04:44:20;;;;;;;12.02;3.78;;;;;;;;;;5045602;28;20048;-63
2023/12/12 04:46:46;;;;;;;11.25;4.07;;;;;;;;;;5042990;28;20037;-63
2023/12/12 04:49:12;;;;;;;16.42;4.10;;;;;;;;;;5026456;28;20118;-63
2023/12/12 04:51:38;;;;;;;11.93;4.75;;;;;;;;;;5026193;28;20044;-63
2023/12/12 04:54:05;;;;;;;12.50;4.60;;;;;;;;;;5012775;28;20413;-63
2023/12/12 04:56:31;;;;;;;13.35;4.60;;;;;;;;;;5026956;28;20041;-63
2023/12/12 04:58:57;;;;;;;16.70;4.57;;;;;;;;;;5025822;28;20041;-63
2023/12/12 05:01:23;;;;;;;11.60;4.47;;;;;;;;;;5027955;28;20053;-63
2023/12/12 05:03:49;;;;;;;13.20;4.53;;;;;;;;;;5045354;28;20687;-63
2023/12/12 05:06:15;;;;;;;13.35;4.90;;;;;;;;;;5025343;28;20037;-63
2023/12/12 05:08:43;;;;;;;16.92;5.03;;;;;;;;;;5043401;28;20053;-63
2023/12/12 05:11:13;;;;;;;17.55;5.40;;;;;;;;;;5026228;28;20052;-63
2023/12/12 05:13:39;;;;;;;16.48;5.50;;;;;;;;;;5047115;28;20809;-63
2023/12/12 05:16:07;;;;;;;20.33;5.70;;;;;;;;;;5031267;28;20073;-63
2023/12/12 05:18:34;;;;;;;14.05;5.85;;;;;;;;;;5022364;28;20180;-63
2023/12/12 05:21:00;;;;;;;19.90;5.93;;;;;;;;;;5021579;28;20057;-63
2023/12/12 05:23:26;;;;;;;21.25;6.07;;;;;;;;;;5023128;28;20101;-63
2023/12/12 05:25:52;;;;;;;19.27;5.38;;;;;;;;;;5021898;28;20053;-63
2023/12/12 05:28:18;;;;;;;17.02;6.07;;;;;;;;;;5037802;28;20345;-63
2023/12/12 05:30:45;;;;;;;14.45;5.15;;;;;;;;;;5005962;28;20114;-63
2023/12/12 05:33:12;;;;;;;15.07;6.10;;;;;;;;;;5023038;28;20134;-63
2023/12/12 05:35:39;;;;;;;23.13;6.63;;;;;;;;;;5029005;28;20037;-63
2023/12/12 05:38:06;;;;;;;20.98;5.80;;;;;;;;;;5025881;28;20037;-63
2023/12/12 05:40:33;;;;;;;15.52;5.38;;;;;;;;;;5026184;28;20042;-63
2023/12/12 05:42:59;;;;;;;19.83;5.60;;;;;;;;;;5027898;28;20045;-63
2023/12/12 05:45:25;;;;;;;48.53;5.85;;;;;;;;;;5029490;28;20053;-63
2023/12/12 05:47:51;;;;;;;45.67;6.50;;;;;;;;;;5023221;28;20049;-63
2023/12/12 05:50:17;;;;;;;17.90;5.82;;;;;;;;;;5028887;28;20106;-63
2023/12/12 05:52:44;;;;;;;16.67;6.32;;;;;;;;;;5027158;28;20056;-63
2023/12/12 05:55:10;;;;;;;18.23;6.07;;;;;;;;;;5024343;28;20120;-63
2023/12/12 05:57:36;;;;;;;22.98;6.55;;;;;;;;;;5027444;28;20478;-63
2023/12/12 06:00:05;;;;;;;21.15;6.50;;;;;;;;;;5024456;28;20468;-64
2023/12/12 06:02:32;;;;;;;20.13;6.63;;;;;;;;;;5025046;28;20095;-64
2023/12/12 06:04:58;;;;;;;21.10;6.75;;;;;;;;;;5026310;28;20136;-64
2023/12/12 06:07:24;;;;;;;37.03;6.82;;;;;;;;;;5029401;28;20049;-64
2023/12/12 06:09:51;;;;;;;17.35;7.05;;;;;;;;;;5029922;28;20398;-64
2023/12/12 06:12:17;;;;;;;37.80;7.80;;;;;;;;;;5031739;28;20045;-64
2023/12/12 06:14:44;;;;;;;71.72;8.95;;;;;;;;;;5030456;28;20138;-65
2023/12/12 06:17:11;;;;;;;17.40;6.85;;;;;;;;;;5029544;28;20041;-64
2023/12/12 06:19:38;;;;;;;21.52;7.43;;;;;;;;;;5028159;28;20046;-65
2023/12/12 06:22:04;;;;;;;24.98;7.63;;;;;;;;;;5029196;28;20417;-65
2023/12/12 06:24:30;;;;;;;20.40;7.75;;;;;;;;;;5028567;28;20123;-64
2023/12/12 06:26:56;;;;;;;23.40;7.80;;;;;;;;;;5028862;28;20065;-63
2023/12/12 06:29:24;;;;;;;18.88;6.78;;;;;;;;;;5028336;28;20129;-64
2023/12/12 06:31:50;;;;;;;25.23;8.20;;;;;;;;;;5017964;28;20049;-65
2023/12/12 06:34:16;;;;;;;28.63;7.85;;;;;;;;;;5023175;28;20038;-64
2023/12/12 06:36:42;;;;;;;28.90;7.43;;;;;;;;;;5034486;28;20117;-63
2023/12/12 06:39:09;;;;;;;117.72;9.38;;;;;;;;;;5025686;28;20654;-64
2023/12/12 06:41:36;;;;;;;150.98;9.20;;;;;;;;;;5029495;28;20117;-64
2023/12/12 06:44:03;;;;;;;54.90;6.60;;;;;;;;;;5029240;28;20124;-64
2023/12/12 06:46:29;;;;;;;53.85;6.47;;;;;;;;;;5028537;28;20404;-64
2023/12/12 06:48:55;;;;;;;56.55;5.75;;;;;;;;;;5029398;28;20041;-64
2023/12/12 06:51:22;;;;;;;28.48;9.82;;;;;;;;;;5029825;28;20042;-64
2023/12/12 06:53:48;;;;;;;27.75;10.93;;;;;;;;;;5029085;28;20393;-64
2023/12/12 06:56:14;;;;;;;27.42;10.38;;;;;;;;;;5028776;28;20103;-64
2023/12/12 06:58:40;;;;;;;24.27;9.75;;;;;;;;;;5029731;28;20454;-64
2023/12/12 07:01:08;;;;;;;26.38;11.88;;;;;;;;;;5026749;28;20128;-64
2023/12/12 07:03:34;;;;;;;25.90;10.63;;;;;;;;;;5032415;28;20045;-64
2023/12/12 07:06:02;;;;;;;34.20;11.50;;;;;;;;;;5027050;28;20077;-64
2023/12/12 07:08:28;;;;;;;35.13;12.82;;;;;;;;;;5026449;28;20054;-63
2023/12/12 07:10:55;;;;;;;42.22;14.32;;;;;;;;;;5029319;28;20033;-64
2023/12/12 07:13:21;;;;;;;26.95;12.32;;;;;;;;;;5028515;28;20053;-64
2023/12/12 07:15:47;;;;;;;40.03;13.15;;;;;;;;;;5032956;28;20045;-64
2023/12/12 07:18:14;;;;;;;33.55;13.75;;;;;;;;;;5041159;28;20045;-64
2023/12/12 07:20:44;;;;;;;60.05;15.70;;;;;;;;;;5033612;28;20045;-64
2023/12/12 07:23:10;;;;;;;43.72;15.10;;;;;;;;;;5029144;28;20079;-64
2023/12/12 07:25:36;;;;;;;40.50;15.27;;;;;;;;;;5053004;28;20044;-63
2023/12/12 07:28:03;;;;;;;49.55;15.60;;;;;;;;;;5053437;28;20100;-63
2023/12/12 07:30:29;;;;;;;43.17;16.00;;;;;;;;;;5053276;28;20497;-64
2023/12/12 07:32:56;;;;;;;55.35;17.40;;;;;;;;;;5033971;28;20106;-63
2023/12/12 07:35:23;;;;;;;75.80;18.67;;;;;;;;;;5033272;28;20131;-63
2023/12/12 07:37:49;;;;;;;79.13;19.63;;;;;;;;;;5051883;28;20032;-64
2023/12/12 07:40:15;;;;;;;82.50;19.25;;;;;;;;;;5054149;28;20041;-64
2023/12/12 07:42:41;;;;;;;116.65;22.42;;;;;;;;;;5034812;28;20412;-64
2023/12/12 07:45:08;;;;;;;125.80;23.45;;;;;;;;;;5050840;28;20120;-64
2023/12/12 07:47:34;;;;;;;152.18;24.42;;;;;;;;;;5032172;28;20045;-64
2023/12/12 07:50:05;;;;;;;191.68;25.33;;;;;;;;;;5027760;28;20041;-64
2023/12/12 07:52:31;;;;;;;169.00;24.73;;;;;;;;;;5021116;28;20053;-63
2023/12/12 07:54:57;;;;;;;115.32;22.35;;;;;;;;;;5015847;28;20068;-63
2023/12/12 07:57:23;;;;;;;175.32;25.75;;;;;;;;;;5030746;28;20067;-64
2023/12/12 07:59:50;;;;;;;295.02;28.42;;;;;;;;;;5032710;28;20104;-64
2023/12/12 08:02:16;;;;;;;231.93;28.80;;;;;;;;;;5028524;28;20053;-64
2023/12/12 08:04:43;;;;;;;294.60;31.10;;;;;;;;;;5049435;28;20131;-63
2023/12/12 08:07:09;;;;;;;324.05;31.88;;;;;;;;;;5032682;28;20155;-64
2023/12/12 08:09:36;;;;;;;307.92;30.73;;;;;;;;;;5031164;28;20052;-64
2023/12/12 08:12:02;;;;;;;113.80;25.38;;;;;;;;;;5030748;28;20033;-63
2023/12/12 08:14:29;;;;;;;308.13;32.90;;;;;;;;;;5044902;28;20068;-63
2023/12/12 08:16:55;;;;;;;237.20;29.00;;;;;;;;;;5048408;28;20116;-64
2023/12/12 08:19:21;;;;;;;127.13;26.55;;;;;;;;;;5049045;28;20131;-63
2023/12/12 08:21:47;;;;;;;276.35;32.55;;;;;;;;;;5030229;28;20077;-64
2023/12/12 08:24:14;;;;;;;167.82;27.15;;;;;;;;;;5048508;28;20045;-64
2023/12/12 08:26:44;;;;;;;147.82;25.67;;;;;;;;;;5031059;28;20080;-63
2023/12/12 08:29:11;;;;;;;334.65;32.83;;;;;;;;;;5048969;28;20053;-64
2023/12/12 08:31:40;;;;;;;313.67;31.50;;;;;;;;;;5030305;28;20041;-63
2023/12/12 08:34:06;;;;;;;322.40;33.30;;;;;;;;;;5032061;28;20607;-63
2023/12/12 08:36:32;;;;;;;390.45;35.10;;;;;;;;;;5048758;28;20052;-64
2023/12/12 08:38:59;;;;;;;377.25;33.70;;;;;;;;;;5047108;28;20033;-63
2023/12/12 08:41:28;;;;;;;308.20;31.75;;;;;;;;;;5030724;28;20099;-63
2023/12/12 08:43:54;;;;;;;379.30;35.50;;;;;;;;;;5030825;28;20059;-63
2023/12/12 08:46:26;;;;;;;299.52;32.67;;;;;;;;;;5030125;28;20136;-64
2023/12/12 08:48:53;;;;;;;305.77;30.73;;;;;;;;;;5027610;28;20059;-63
2023/12/12 08:51:19;;;;;;;288.27;32.58;;;;;;;;;;5027344;28;20037;-64
2023/12/12 08:53:45;;;;;;;388.05;37.33;;;;;;;;;;5050470;28;20044;-64
2023/12/12 08:56:15;;;;;;;382.75;37.00;;;;;;;;;;5048550;28;20098;-63
2023/12/12 08:58:43;;;;;;;315.42;34.38;;;;;;;;;;5048756;28;20060;-63
2023/12/12 09:01:09;;;;;;;322.23;34.33;;;;;;;;;;5030236;28;20072;-63
2023/12/12 09:03:35;;;;;;;360.33;35.72;;;;;;;;;;5029819;28;20064;-64
2023/12/12 09:06:02;;;;;;;414.98;37.83;;;;;;;;;;5047709;28;20064;-64
2023/12/12 09:08:28;;;;;;;415.52;37.38;;;;;;;;;;5028925;28;20063;-63
2023/12/12 09:10:54;;;;;;;377.33;39.03;;;;;;;;;;5015124;28;20043;-63
2023/12/12 09:13:20;;;;;;;332.38;35.95;;;;;;;;;;5031023;28;20044;-63
2023/12/12 09:15:46;;;;;;;285.25;33.70;;;;;;;;;;5030699;28;20073;-64
2023/12/12 09:18:13;;;;;;;126.80;28.10;;;;;;;;;;5025350;28;20041;-64
2023/12/12 09:20:39;;;;;;;184.02;32.50;;;;;;;;;;5025983;28;20349;-64
2023/12/12 09:23:06;;;;;;;367.00;38.58;;;;;;;;;;5044671;28;20431;-63
2023/12/12 09:25:33;;;;;;;318.52;35.60;;;;;;;;;;5042970;28;20065;-63
2023/12/12 09:27:59;;;;;;;258.92;32.60;;;;;;;;;;5024585;28;20051;-64
2023/12/12 09:30:25;;;;;;;134.95;29.17;;;;;;;;;;5029866;28;20087;-63
2023/12/12 09:32:51;;;;;;;173.07;28.77;;;;;;;;;;5031224;28;20056;-64
2023/12/12 09:35:18;;;;;;;277.13;33.90;;;;;;;;;;5032909;28;20517;-64
2023/12/12 09:37:44;;;;;;;241.60;31.90;;;;;;;;;;5034193;28;20041;-64
2023/12/12 09:40:10;;;;;;;270.45;34.08;;;;;;;;;;5034371;28;20090;-63
2023/12/12 09:42:36;;;;;;;319.08;36.08;;;;;;;;;;5014465;28;20102;-63
2023/12/12 09:45:12;;;;;;;287.80;31.98;;;;;;;;;;5033787;28;20045;-63
2023/12/12 09:47:40;;;;;;;271.30;34.53;;;;;;;;;;5050230;28;20128;-64
2023/12/12 09:50:06;;;;;;;280.75;33.03;;;;;;;;;;5050979;28;20052;-63
2023/12/12 09:52:34;;;;;;;217.80;32.60;;;;;;;;;;5033077;28;20071;-63
2023/12/12 09:55:01;;;;;;;275.90;34.95;;;;;;;;;;5050922;28;20037;-63
2023/12/12 09:57:33;;;;;;;240.57;35.28;;;;;;;;;;5033033;28;20128;-64
2023/12/12 10:00:00;;;;;;;285.27;38.33;;;;;;;;;;5031434;28;20094;-63
2023/12/12 10:02:28;;;;;;;262.30;37.33;;;;;;;;;;5031289;28;20047;-63
2023/12/12 10:04:54;;;;;;;340.90;41.83;;;;;;;;;;5033296;28;20342;-63
2023/12/12 10:07:20;;;;;;;270.92;40.42;;;;;;;;;;5050297;28;20045;-64
2023/12/12 10:09:48;;;;;;;294.40;42.92;;;;;;;;;;5049369;28;20434;-64
2023/12/12 10:12:14;;;;;;;278.02;42.25;;;;;;;;;;5033838;28;20084;-64
2023/12/12 10:14:44;;;;;;;189.55;39.97;;;;;;;;;;5032663;28;20472;-64
2023/12/12 10:17:11;;;;;;;220.65;40.92;;;;;;;;;;5032322;28;20041;-64
2023/12/12 10:19:38;;;;;;;185.82;41.30;;;;;;;;;;5029404;28;20050;-64
2023/12/12 10:22:08;;;;;;;247.60;42.67;;;;;;;;;;5034532;28;20516;-64
2023/12/12 10:24:37;;;;;;;189.35;40.83;;;;;;;;;;5034785;28;20091;-64
2023/12/12 10:27:04;;;;;;;239.05;43.80;;;;;;;;;;5034236;28;20396;-70
2023/12/12 10:29:34;;;;;;;207.25;41.42;;;;;;;;;;5033679;28;20046;-65
2023/12/12 10:32:00;;;;;;;170.85;39.92;;;;;;;;;;5035169;28;20049;-66
2023/12/12 10:34:27;;;;;;;121.60;35.47;;;;;;;;;;5039964;28;20056;-64
2023/12/12 10:36:54;;;;;;;169.48;38.03;;;;;;;;;;5031402;28;20046;-63
2023/12/12 10:39:20;;;;;;;105.80;32.83;;;;;;;;;;5033674;28;20397;-65
2023/12/12 10:41:55;;;;;;;92.20;33.75;;;;;;;;;;5031284;28;20090;-63
2023/12/12 10:44:21;;;;;;;127.32;37.58;;;;;;;;;;5033962;28;20523;-66
2023/12/12 10:46:49;;;;;;;100.10;34.55;;;;;;;;;;5032585;28;20527;-65
2023/12/12 10:49:16;;;;;;;99.15;34.58;;;;;;;;;;5034114;28;20081;-65
2023/12/12 10:51:45;;;;;;;105.38;35.80;;;;;;;;;;5031918;28;20037;-64
2023/12/12 10:54:11;;;;;;;111.45;35.60;;;;;;;;;;5035207;28;20049;-65
2023/12/12 10:56:38;;;;;;;85.97;33.22;;;;;;;;;;5033074;28;20108;-65
2023/12/12 10:59:05;;;;;;;88.38;33.67;;;;;;;;;;5033117;28;20041;-74
2023/12/12 11:01:32;;;;;;;109.28;35.22;;;;;;;;;;5032914;28;20092;-66
2023/12/12 11:04:04;;;;;;;84.65;33.67;;;;;;;;;;5032795;28;20396;-66
2023/12/12 11:06:31;;;;;;;82.10;33.10;;;;;;;;;;5016684;28;20417;-65
2023/12/12 11:08:57;;;;;;;82.38;33.33;;;;;;;;;;5026730;28;20106;-65
2023/12/12 11:11:23;;;;;;;92.43;34.90;;;;;;;;;;5034244;28;20045;-65
2023/12/12 11:13:50;;;;;;;106.68;35.60;;;;;;;;;;5029409;28;20369;-65
2023/12/12 11:16:17;;;;;;;80.35;33.85;;;;;;;;;;5032896;28;20485;-65
2023/12/12 11:18:44;;;;;;;95.65;35.83;;;;;;;;;;5040256;28;20141;-65
2023/12/12 11:21:30;;;;;;;80.88;32.35;;;;;;;;;;5032880;28;20045;-65
2023/12/12 11:23:57;;;;;;;79.20;32.25;;;;;;;;;;5045429;28;20036;-65
2023/12/12 11:26:25;;;;;;;80.15;32.78;;;;;;;;;;5058975;28;20528;-65
2023/12/12 11:28:52;;;;;;;77.78;32.50;;;;;;;;;;5041909;28;20048;-65
2023/12/12 11:31:25;;;;;;;78.63;31.45;;;;;;;;;;5032265;28;20049;-65
2023/12/12 11:34:19;;;;;;;71.03;29.83;;;;;;;;;;5056883;28;20041;-65
2023/12/12 11:36:51;;;;;;;70.85;30.25;;;;;;;;;;5031989;28;20135;-65
2023/12/12 11:39:30;;;;;;;68.15;28.75;;;;;;;;;;5035409;28;20163;-65
2023/12/12 11:41:57;;;;;;;66.30;29.55;;;;;;;;;;5021643;28;20044;-65
2023/12/12 11:44:24;;;;;;;59.22;28.35;;;;;;;;;;5054326;28;20137;-64
2023/12/12 11:46:54;;;;;;;65.00;28.02;;;;;;;;;;5035296;28;20044;-65
2023/12/12 11:49:21;;;;;;;57.65;27.45;;;;;;;;;;5052055;28;20107;-65
2023/12/12 11:51:50;;;;;;;63.55;28.98;;;;;;;;;;5035397;28;20124;-65
2023/12/12 11:54:24;;;;;;;57.88;26.48;;;;;;;;;;5035516;28;20098;-65
2023/12/12 11:56:57;;;;;;;56.03;27.27;;;;;;;;;;5035971;28;20049;-65
2023/12/12 11:59:24;;;;;;;57.22;27.52;;;;;;;;;;5054005;28;20128;-65
2023/12/12 12:01:51;;;;;;;59.35;27.92;;;;;;;;;;5051828;28;20124;-65
2023/12/12 12:04:17;;;;;;;63.75;26.70;;;;;;;;;;5036003;28;20132;-65
2023/12/12 12:06:43;;;;;;;56.33;26.70;;;;;;;;;;5053727;28;20045;-65
2023/12/12 12:09:11;;;;;;;55.20;26.63;;;;;;;;;;5035129;28;20049;-65
2023/12/12 12:11:37;;;;;;;62.42;28.10;;;;;;;;;;5035230;28;20059;-65
2023/12/12 12:14:04;;;;;;;64.70;27.85;;;;;;;;;;5030931;28;20135;-66
2023/12/12 12:16:30;;;;;;;69.20;31.00;;;;;;;;;;5050598;28;20495;-65
2023/12/12 12:18:56;;;;;;;62.90;28.15;;;;;;;;;;5052469;28;20048;-64
2023/12/12 12:21:26;;;;;;;64.68;29.08;;;;;;;;;;5051261;28;20512;-64
2023/12/12 12:23:55;;;;;;;70.57;28.65;;;;;;;;;;5032496;28;20037;-65
2023/12/12 12:26:21;;;;;;;63.38;29.35;;;;;;;;;;5035596;28;20133;-65
2023/12/12 12:28:48;;;;;;;73.10;30.63;;;;;;;;;;5052634;28;20045;-64
2023/12/12 12:31:14;;;;;;;60.65;26.98;;;;;;;;;;5052552;28;20045;-65
2023/12/12 12:33:40;;;;;;;62.60;28.27;;;;;;;;;;5051900;28;20479;-65
2023/12/12 12:36:07;;;;;;;61.63;28.02;;;;;;;;;;5034846;28;20435;-65
2023/12/12 12:38:33;;;;;;;68.93;32.03;;;;;;;;;;5033705;28;20052;-64
2023/12/12 12:40:59;;;;;;;72.32;30.90;;;;;;;;;;5034273;28;20071;-65
2023/12/12 12:43:26;;;;;;;63.38;29.15;;;;;;;;;;5030759;28;20049;-65
2023/12/12 12:45:53;;;;;;;58.00;26.85;;;;;;;;;;5031884;28;20056;-65
2023/12/12 12:48:19;;;;;;;62.28;28.05;;;;;;;;;;5034923;28;20456;-65
2023/12/12 12:50:46;;;;;;;62.97;29.13;;;;;;;;;;5034235;28;20044;-65
2023/12/12 12:53:13;;;;;;;59.92;26.38;;;;;;;;;;5034218;28;20197;-65
2023/12/12 12:55:42;;;;;;;56.72;25.60;;;;;;;;;;5034965;28;20044;-65
2023/12/12 12:58:12;;;;;;;65.57;28.45;;;;;;;;;;5050869;28;20045;-65
2023/12/12 13:00:39;;;;;;;54.17;26.23;;;;;;;;;;5052656;28;20105;-65
2023/12/12 13:03:05;;;;;;;61.42;28.15;;;;;;;;;;5033967;28;20493;-65
2023/12/12 13:05:31;;;;;;;53.72;25.65;;;;;;;;;;5034124;28;20064;-65
2023/12/12 13:07:57;;;;;;;68.40;29.10;;;;;;;;;;5034643;28;20049;-65
2023/12/12 13:10:24;;;;;;;70.30;28.80;;;;;;;;;;5052829;28;20372;-65
2023/12/12 13:12:51;;;;;;;57.00;26.90;;;;;;;;;;5032410;28;20056;-65
2023/12/12 13:15:20;;;;;;;61.40;28.77;;;;;;;;;;5034531;28;20053;-65
2023/12/12 13:17:47;;;;;;;68.68;30.65;;;;;;;;;;5034560;28;20401;-65
2023/12/12 13:20:13;;;;;;;60.88;27.75;;;;;;;;;;5028491;28;20076;-66
2023/12/12 13:22:43;;;;;;;67.75;29.95;;;;;;;;;;5029217;28;20116;-66
2023/12/12 13:25:10;;;;;;;55.15;27.60;;;;;;;;;;5013419;28;20128;-65
2023/12/12 13:27:37;;;;;;;61.50;26.77;;;;;;;;;;5016046;28;20504;-66
2023/12/12 13:30:09;;;;;;;60.47;27.63;;;;;;;;;;5011240;28;20393;-65
2023/12/12 13:32:39;;;;;;;58.65;27.55;;;;;;;;;;5028624;28;20053;-65
2023/12/12 13:35:07;;;;;;;60.70;27.55;;;;;;;;;;5030473;28;20090;-65
2023/12/12 13:37:33;;;;;;;65.13;29.20;;;;;;;;;;5031005;28;20056;-65
2023/12/12 13:40:00;;;;;;;60.20;27.35;;;;;;;;;;5020702;28;20056;-65
2023/12/12 13:42:26;;;;;;;59.75;29.05;;;;;;;;;;5025608;28;20057;-65
2023/12/12 13:44:52;;;;;;;70.03;31.00;;;;;;;;;;5021872;28;20051;-65
2023/12/12 13:47:18;;;;;;;66.78;29.45;;;;;;;;;;5026187;28;20103;-65
2023/12/12 13:49:44;;;;;;;69.65;30.60;;;;;;;;;;5028093;28;20081;-65
2023/12/12 13:52:10;;;;;;;56.72;27.42;;;;;;;;;;5029708;28;20053;-65
2023/12/12 13:54:37;;;;;;;57.53;28.23;;;;;;;;;;5028753;28;20041;-65
2023/12/12 13:57:03;;;;;;;69.82;29.35;;;;;;;;;;5026805;28;20128;-65
2023/12/12 13:59:29;;;;;;;55.38;27.30;;;;;;;;;;5031707;28;20485;-65
2023/12/12 14:01:55;;;;;;;63.90;29.25;;;;;;;;;;5029276;28;20373;-65
2023/12/12 14:04:22;;;;;;;57.35;26.90;;;;;;;;;;5029542;28;20125;-65
2023/12/12 14:06:48;;;;;;;57.97;27.48;;;;;;;;;;5012196;28;20473;-65
2023/12/12 14:09:14;;;;;;;57.10;25.70;;;;;;;;;;5028667;28;20450;-65
2023/12/12 14:11:40;;;;;;;50.38;24.42;;;;;;;;;;5028716;28;20082;-78
2023/12/12 14:14:07;;;;;;;52.65;24.35;;;;;;;;;;5027173;28;20175;-65
2023/12/12 14:16:33;;;;;;;52.83;26.25;;;;;;;;;;5024683;28;20038;-64
2023/12/12 14:18:59;;;;;;;56.65;27.95;;;;;;;;;;5035943;28;20122;-65
2023/12/12 14:21:25;;;;;;;65.93;34.10;;;;;;;;;;5032493;28;20163;-65